Time;durP1;ratioP1;P1;durP2;ratioP2;P2;SDS_P1;SDS_P2;PMS_P1;PMS_P2;Temp;Humidity;BMP_temperature;BMP_pressure;BME280_temperature;BME280_humidity;BME280_pressure;Samples;Min_cycle;Max_cycle;Signal;HPM_P1;HPM_P2
2023/06/16 00:00:43;;;;;;;4.43;4.03;;;;;;;-141.84;54.50;21045.63;4956318;29;20204;-61
2023/06/16 00:03:15;;;;;;;4.95;4.20;;;;;;;-141.84;54.37;21065.97;4956095;29;20644;-61
2023/06/16 00:05:46;;;;;;;5.75;4.35;;;;;;;-141.84;54.60;21068.00;4974050;28;20196;-60
2023/06/16 00:08:16;;;;;;;5.65;4.22;;;;;;;-141.84;54.59;21057.84;4975188;28;20779;-59
2023/06/16 00:10:45;;;;;;;4.70;4.20;;;;;;;-141.84;55.02;21039.53;4988784;28;20683;-61
2023/06/16 00:13:13;;;;;;;4.65;4.10;;;;;;;-141.84;54.83;21063.94;4994749;28;20667;-61
2023/06/16 00:15:42;;;;;;;4.88;4.40;;;;;;;-141.84;55.10;21011.09;4989285;28;20287;-60
2023/06/16 00:18:11;;;;;;;6.05;4.70;;;;;;;-141.84;55.43;21045.63;4975476;28;20303;-59
2023/06/16 00:20:41;;;;;;;4.57;4.18;;;;;;;-141.84;55.59;21045.63;4975264;28;20299;-62
2023/06/16 00:23:16;;;;;;;5.85;5.18;;;;;;;-141.84;55.63;21017.19;4975500;28;20630;-61
2023/06/16 00:25:44;;;;;;;8.07;4.57;;;;;;;-141.84;55.93;21007.00;4976024;28;20191;-61
2023/06/16 00:28:13;;;;;;;4.95;4.45;;;;;;;-141.84;56.02;20988.72;4976653;28;20259;-61
2023/06/16 00:30:41;;;;;;;4.65;4.25;;;;;;;-141.84;56.33;21017.19;4976181;28;20274;-61
2023/06/16 00:33:12;;;;;;;5.10;4.60;;;;;;;-141.84;56.78;20984.66;4975795;28;20211;-61
2023/06/16 00:35:41;;;;;;;5.25;4.57;;;;;;;-141.84;56.58;20996.84;4976186;28;20255;-60
2023/06/16 00:38:10;;;;;;;4.75;4.25;;;;;;;-141.84;57.03;20962.28;4975205;28;20663;-61
2023/06/16 00:40:39;;;;;;;5.00;4.50;;;;;;;-141.84;57.08;20996.84;4975674;28;20303;-60
2023/06/16 00:43:07;;;;;;;5.80;4.43;;;;;;;-141.84;57.05;21015.16;4976634;28;20287;-62
2023/06/16 00:45:36;;;;;;;5.57;4.40;;;;;;;-141.84;57.38;21002.94;4975109;28;20279;-60
2023/06/16 00:48:05;;;;;;;5.30;4.80;;;;;;;-141.84;57.37;20972.47;4975300;28;20319;-59
2023/06/16 00:50:35;;;;;;;4.90;4.50;;;;;;;-141.84;57.38;20990.75;4968685;28;20212;-62
2023/06/16 00:53:04;;;;;;;6.07;4.47;;;;;;;-141.84;57.47;21011.09;4967468;28;20199;-61
2023/06/16 00:55:33;;;;;;;4.97;4.47;;;;;;;-141.84;57.60;20996.84;4958722;28;20201;-60
2023/06/16 00:58:03;;;;;;;4.82;4.43;;;;;;;-141.84;56.68;21065.97;4954454;29;20213;-60
2023/06/16 01:00:36;;;;;;;5.55;4.40;;;;;;;-141.84;57.37;21009.03;4954053;29;20219;-61
2023/06/16 01:03:05;;;;;;;4.72;4.32;;;;;;;-141.84;57.71;20992.78;4954347;29;20275;-60
2023/06/16 01:05:35;;;;;;;5.85;4.75;;;;;;;-141.84;58.10;20974.50;4969938;28;20200;-61
2023/06/16 01:08:13;;;;;;;6.40;4.75;;;;;;;-141.84;58.27;20944.00;4972881;28;20582;-61
2023/06/16 01:10:53;;;;;;;5.10;4.60;;;;;;;-141.84;58.55;20948.06;4986147;28;20195;-61
2023/06/16 01:13:26;;;;;;;5.35;4.85;;;;;;;-141.84;58.16;20968.38;4993002;28;20296;-61
2023/06/16 01:16:00;;;;;;;6.70;4.80;;;;;;;-141.84;58.16;20988.72;4984895;28;20238;-60
2023/06/16 01:18:30;;;;;;;5.45;4.95;;;;;;;-141.84;57.79;21007.00;4973294;28;20196;-62
2023/06/16 01:21:08;;;;;;;5.60;4.97;;;;;;;-141.84;58.10;20966.34;4972999;28;20735;-60
2023/06/16 01:23:52;;;;;;;4.63;4.22;;;;;;;-141.84;58.64;20937.91;4973677;28;20188;-61
2023/06/16 01:26:22;;;;;;;6.65;5.05;;;;;;;-141.84;58.59;20976.53;4972938;28;20664;-62
2023/06/16 01:28:53;;;;;;;5.13;4.63;;;;;;;-141.84;58.54;20927.72;4973264;28;20228;-60
2023/06/16 01:31:22;;;;;;;5.18;4.63;;;;;;;-141.84;58.49;20980.59;4973059;28;20199;-60
2023/06/16 01:33:52;;;;;;;4.93;4.25;;;;;;;-141.84;58.26;20988.72;4973160;28;20307;-60
2023/06/16 01:36:22;;;;;;;7.22;4.82;;;;;;;-141.84;58.24;20931.78;4972732;28;20731;-60
2023/06/16 01:38:52;;;;;;;5.32;4.82;;;;;;;-141.84;57.45;21013.13;4972845;28;20583;-61
2023/06/16 01:41:21;;;;;;;5.20;4.68;;;;;;;-141.84;58.05;20980.59;4972828;28;20279;-61
2023/06/16 01:43:51;;;;;;;5.35;4.80;;;;;;;-141.84;57.81;20960.25;4935759;28;1092435;-61
2023/06/16 01:46:20;;;;;;;5.45;4.60;;;;;;;-141.84;58.39;20966.34;4972311;28;20692;-61
2023/06/16 01:48:49;;;;;;;5.38;4.57;;;;;;;-141.84;59.30;20958.22;4954385;29;20275;-59
2023/06/16 01:51:18;;;;;;;4.88;4.40;;;;;;;-141.84;59.50;20876.91;4957436;28;20492;-61
2023/06/16 01:53:46;;;;;;;5.80;5.20;;;;;;;-141.84;58.64;20909.44;4972841;28;20291;-61
2023/06/16 01:56:16;;;;;;;5.45;4.53;;;;;;;-141.84;58.84;20909.44;4973343;28;20226;-60
2023/06/16 01:58:45;;;;;;;5.47;4.90;;;;;;;-141.84;58.14;20939.94;4973865;28;20283;-59
2023/06/16 02:01:19;;;;;;;5.18;4.45;;;;;;;-141.84;58.58;20941.97;4973410;28;20258;-61
2023/06/16 02:03:51;;;;;;;5.15;4.65;;;;;;;-141.84;57.82;20962.28;4973894;28;20191;-60
2023/06/16 02:06:25;;;;;;;5.53;5.03;;;;;;;-141.84;57.85;20982.63;4973322;28;20742;-60
2023/06/16 02:08:56;;;;;;;5.13;4.63;;;;;;;-141.84;57.85;20948.06;4973521;28;20216;-61
2023/06/16 02:11:27;;;;;;;5.70;5.13;;;;;;;-141.84;58.46;20903.34;4991104;28;20224;-59
2023/06/16 02:13:56;;;;;;;9.88;5.45;;;;;;;-141.84;58.25;20911.47;4973171;28;20676;-61
2023/06/16 02:16:25;;;;;;;4.97;4.57;;;;;;;-141.84;58.63;20856.56;4973099;28;20609;-60
2023/06/16 02:18:55;;;;;;;5.13;4.63;;;;;;;-141.84;58.87;20866.75;4973377;28;20208;-61
2023/06/16 02:21:23;;;;;;;5.47;4.90;;;;;;;-141.84;58.95;20850.47;4972422;28;20204;-60
2023/06/16 02:23:52;;;;;;;6.10;4.72;;;;;;;-141.84;58.68;20878.94;4973341;28;20235;-60
2023/06/16 02:26:21;;;;;;;4.97;4.28;;;;;;;-141.84;58.97;20858.59;4972878;28;20227;-60
2023/06/16 02:28:52;;;;;;;5.82;4.45;;;;;;;-141.84;58.68;20878.94;4972794;28;20738;-61
2023/06/16 02:31:20;;;;;;;5.50;4.55;;;;;;;-141.84;58.84;20883.00;4972913;28;20255;-60
2023/06/16 02:33:52;;;;;;;5.72;4.80;;;;;;;-141.84;58.61;20872.84;4972957;28;20240;-60
2023/06/16 02:36:21;;;;;;;5.88;4.80;;;;;;;-141.84;58.31;20897.25;4972963;28;20318;-60
2023/06/16 02:38:49;;;;;;;5.05;4.60;;;;;;;-141.84;58.20;20854.53;4972866;28;20288;-60
2023/06/16 02:41:18;;;;;;;5.05;4.53;;;;;;;-141.84;58.02;20907.41;4972443;28;20235;-60
2023/06/16 02:43:46;;;;;;;5.88;4.82;;;;;;;-141.84;57.64;20917.56;4961693;28;20718;-61
2023/06/16 02:46:16;;;;;;;6.00;4.93;;;;;;;-141.84;58.13;20907.41;4955806;28;20577;-61
2023/06/16 02:48:45;;;;;;;5.63;5.03;;;;;;;-141.84;57.99;20901.31;4953202;29;20335;-61
2023/06/16 02:51:13;;;;;;;5.30;4.80;;;;;;;-141.84;58.44;20899.28;4953101;29;20296;-62
2023/06/16 02:53:45;;;;;;;6.30;5.20;;;;;;;-141.84;58.37;20893.16;4971281;28;20228;-61
2023/06/16 02:56:14;;;;;;;6.07;5.22;;;;;;;-141.84;58.91;20880.97;4972325;28;20192;-60
2023/06/16 02:58:43;;;;;;;5.82;4.95;;;;;;;-141.84;59.14;20856.56;4972271;28;20660;-60
2023/06/16 03:01:12;;;;;;;5.60;5.10;;;;;;;-141.84;58.51;20899.28;4972092;28;20290;-60
2023/06/16 03:03:42;;;;;;;5.18;4.68;;;;;;;-141.84;58.94;20878.94;4972302;28;20215;-60
2023/06/16 03:06:10;;;;;;;6.88;5.47;;;;;;;-141.84;59.01;20872.84;4972129;28;20214;-60
2023/06/16 03:08:39;;;;;;;6.22;5.28;;;;;;;-141.84;58.35;20889.09;4972179;28;20235;-61
2023/06/16 03:11:07;;;;;;;6.30;5.10;;;;;;;-141.84;59.01;20817.94;4988221;28;20199;-61
2023/06/16 03:13:36;;;;;;;5.25;4.75;;;;;;;-141.84;58.21;20903.34;4991645;28;20266;-60
2023/06/16 03:16:05;;;;;;;4.88;4.38;;;;;;;-141.84;58.03;20872.84;4982894;28;20251;-61
2023/06/16 03:18:34;;;;;;;7.97;5.28;;;;;;;-141.84;57.90;20911.47;4972198;28;20232;-60
2023/06/16 03:21:04;;;;;;;5.40;4.90;;;;;;;-141.84;57.57;20931.78;4972138;28;20203;-61
2023/06/16 03:23:33;;;;;;;5.38;4.88;;;;;;;-141.84;58.03;20895.19;4972073;28;20235;-61
2023/06/16 03:26:02;;;;;;;8.75;5.10;;;;;;;-141.84;58.30;20870.81;4971900;28;20208;-61
2023/06/16 03:28:30;;;;;;;6.25;5.13;;;;;;;-141.84;57.95;20872.84;4971709;28;20799;-61
2023/06/16 03:31:00;;;;;;;6.25;4.75;;;;;;;-141.84;58.70;20811.84;4971764;28;20286;-61
2023/06/16 03:33:31;;;;;;;5.50;4.93;;;;;;;-141.84;58.89;20856.56;4971565;28;20747;-60
2023/06/16 03:35:59;;;;;;;7.85;5.38;;;;;;;-141.84;58.85;20840.31;4972028;28;20184;-60
2023/06/16 03:38:29;;;;;;;5.90;4.75;;;;;;;-141.84;59.12;20817.94;4971877;28;20219;-61
2023/06/16 03:40:58;;;;;;;5.35;4.85;;;;;;;-141.84;59.13;20809.81;4953566;28;20232;-61
2023/06/16 03:43:26;;;;;;;7.88;4.65;;;;;;;-141.84;59.20;20844.38;4955405;28;20357;-60
2023/06/16 03:45:55;;;;;;;6.15;4.95;;;;;;;-141.84;58.99;20830.16;4952590;29;20259;-61
2023/06/16 03:48:23;;;;;;;6.25;5.20;;;;;;;-141.84;58.27;20880.97;4952530;29;20624;-61
2023/06/16 03:50:52;;;;;;;5.30;4.80;;;;;;;-141.84;59.05;20826.09;4952706;29;20208;-61
2023/06/16 03:53:21;;;;;;;5.50;5.00;;;;;;;-141.84;59.03;20817.94;4967449;28;20634;-61
2023/06/16 03:55:51;;;;;;;6.47;5.50;;;;;;;-141.84;58.18;20866.75;4971793;28;20337;-59
2023/06/16 03:58:20;;;;;;;4.93;4.47;;;;;;;-141.84;58.18;20903.34;4971962;28;20295;-61
2023/06/16 04:00:48;;;;;;;6.38;5.18;;;;;;;-141.84;57.74;20911.47;4971668;28;20299;-60
2023/06/16 04:03:17;;;;;;;6.15;5.40;;;;;;;-141.84;56.63;20972.47;4971839;28;20200;-60
2023/06/16 04:05:45;;;;;;;7.78;5.38;;;;;;;-141.84;55.99;20927.72;4971592;28;20295;-61
2023/06/16 04:08:14;;;;;;;7.32;5.75;;;;;;;-141.84;55.59;20929.75;4971295;28;20208;-61
2023/06/16 04:10:42;;;;;;;5.90;5.30;;;;;;;-141.84;55.53;20937.91;4984342;28;20742;-61
2023/06/16 04:13:12;;;;;;;5.70;5.20;;;;;;;-141.84;55.26;20972.47;4991210;28;20361;-60
2023/06/16 04:15:41;;;;;;;6.32;5.72;;;;;;;-141.84;54.72;20994.81;4985643;28;20232;-60
2023/06/16 04:18:09;;;;;;;6.40;5.00;;;;;;;-141.84;54.91;20990.75;4971707;28;20295;-61
2023/06/16 04:20:38;;;;;;;7.63;6.22;;;;;;;-141.84;54.02;21051.75;4971810;28;20204;-61
2023/06/16 04:23:09;;;;;;;7.65;5.55;;;;;;;-141.84;54.38;21007.00;4971574;28;20295;-61
2023/06/16 04:25:38;;;;;;;7.25;5.05;;;;;;;-141.84;54.92;21004.97;4971617;28;20634;-60
2023/06/16 04:28:12;;;;;;;7.15;5.60;;;;;;;-141.84;54.72;20988.72;4971408;28;20200;-61
2023/06/16 04:30:42;;;;;;;6.03;5.43;;;;;;;-141.84;54.84;20990.75;4971078;28;20372;-61
2023/06/16 04:33:11;;;;;;;5.95;5.35;;;;;;;-141.84;54.94;20982.63;4971200;28;20200;-61
2023/06/16 04:35:39;;;;;;;7.03;5.70;;;;;;;-141.84;55.38;20950.09;4971625;28;20208;-60
2023/06/16 04:38:08;;;;;;;8.05;5.60;;;;;;;-141.84;55.73;20958.22;4971103;28;20207;-63
2023/06/16 04:40:38;;;;;;;5.82;5.22;;;;;;;-141.84;56.08;20972.47;4956039;28;20228;-61
2023/06/16 04:43:06;;;;;;;10.82;5.82;;;;;;;-141.84;55.42;20990.75;4952079;28;20212;-60
2023/06/16 04:45:35;;;;;;;6.60;5.90;;;;;;;-141.84;55.46;20968.38;4955554;29;20185;-61
2023/06/16 04:48:05;;;;;;;9.68;5.85;;;;;;;-141.84;55.47;20982.63;4955473;29;20200;-61
2023/06/16 04:50:34;;;;;;;6.68;5.95;;;;;;;-141.84;55.45;21002.94;4955474;29;20307;-61
2023/06/16 04:53:03;;;;;;;7.60;6.55;;;;;;;-141.84;55.00;21055.81;4967905;28;20715;-60
2023/06/16 04:55:31;;;;;;;9.32;5.85;;;;;;;-141.84;54.67;21061.91;4974675;28;20312;-62
2023/06/16 04:58:00;;;;;;;8.13;6.30;;;;;;;-141.84;53.91;21110.69;4974347;28;20303;-61
2023/06/16 05:00:29;;;;;;;6.72;6.03;;;;;;;-141.84;54.47;21096.47;4974517;28;20204;-61
2023/06/16 05:02:58;;;;;;;8.75;6.25;;;;;;;-141.84;54.67;21090.38;4974328;28;20254;-61
2023/06/16 05:05:28;;;;;;;11.02;6.30;;;;;;;-141.84;54.35;21126.97;4974743;28;20206;-62
2023/06/16 05:07:57;;;;;;;7.78;6.03;;;;;;;-141.84;53.87;21179.81;4974279;28;20286;-60
2023/06/16 05:10:25;;;;;;;9.35;6.60;;;;;;;-141.84;54.02;21139.16;4985221;28;20650;-67
2023/06/16 05:12:54;;;;;;;6.65;6.05;;;;;;;-141.84;54.40;21137.13;4994025;28;20207;-67
2023/06/16 05:15:23;;;;;;;7.38;6.45;;;;;;;-141.84;54.88;21106.63;4990769;28;20204;-68
2023/06/16 05:17:51;;;;;;;9.05;6.63;;;;;;;-141.84;54.88;21110.69;4974343;28;20206;-68
2023/06/16 05:20:20;;;;;;;10.32;7.07;;;;;;;-141.84;54.78;21133.06;4974171;28;20218;-68
2023/06/16 05:22:50;;;;;;;6.90;6.28;;;;;;;-141.84;55.19;21096.47;4974345;28;20633;-67
2023/06/16 05:25:19;;;;;;;7.63;6.25;;;;;;;-141.84;55.29;21098.50;4973907;28;20204;-66
2023/06/16 05:27:47;;;;;;;7.43;5.97;;;;;;;-141.84;55.57;21055.81;4974031;28;20693;-66
2023/06/16 05:30:17;;;;;;;8.48;6.30;;;;;;;-141.84;55.35;21090.38;4973863;28;20223;-67
2023/06/16 05:32:46;;;;;;;7.53;6.30;;;;;;;-141.84;55.32;21151.34;4974105;28;20214;-66
2023/06/16 05:35:14;;;;;;;7.80;6.40;;;;;;;-141.84;55.17;21159.50;4971167;28;20215;-67
2023/06/16 05:37:43;;;;;;;8.18;6.75;;;;;;;-141.84;54.65;21139.16;4954777;29;20337;-66
2023/06/16 05:40:13;;;;;;;6.28;5.68;;;;;;;-141.84;55.44;21124.94;4967801;28;20299;-66
2023/06/16 05:42:42;;;;;;;7.60;6.65;;;;;;;-141.84;55.11;21183.88;4973983;28;20598;-68
2023/06/16 05:45:11;;;;;;;8.70;6.45;;;;;;;-141.84;55.40;21161.53;4973354;28;20264;-67
2023/06/16 05:47:39;;;;;;;8.20;7.13;;;;;;;-141.84;55.45;21183.88;4973970;28;20635;-66
2023/06/16 05:50:09;;;;;;;7.07;6.38;;;;;;;-141.84;56.18;21122.91;4973832;28;20239;-67
2023/06/16 05:52:38;;;;;;;8.45;6.95;;;;;;;-141.84;56.46;21112.72;4973712;28;20204;-66
2023/06/16 05:55:08;;;;;;;8.05;6.95;;;;;;;-141.84;57.06;21072.06;4972083;28;20298;-66
2023/06/16 05:57:38;;;;;;;9.00;6.60;;;;;;;-141.84;57.19;21094.44;4973517;28;20295;-66
2023/06/16 06:00:08;;;;;;;7.75;6.60;;;;;;;-141.84;58.25;21068.00;4973447;28;20223;-66
2023/06/16 06:02:37;;;;;;;8.55;6.30;;;;;;;-141.84;58.82;21039.53;4973844;28;20208;-66
2023/06/16 06:05:06;;;;;;;9.20;6.25;;;;;;;-141.84;58.61;21082.25;4973392;28;20203;-67
2023/06/16 06:07:34;;;;;;;8.10;6.10;;;;;;;-141.84;59.76;21017.19;4973197;28;20327;-66
2023/06/16 06:10:03;;;;;;;8.90;6.30;;;;;;;-141.84;60.41;21021.25;4973102;28;20664;-66
2023/06/16 06:12:31;;;;;;;7.32;6.05;;;;;;;-141.84;59.70;21039.53;4973351;28;20316;-66
2023/06/16 06:15:01;;;;;;;6.82;6.20;;;;;;;-141.84;59.80;21011.09;4973168;28;20227;-67
2023/06/16 06:17:30;;;;;;;7.03;6.32;;;;;;;-141.84;59.95;21000.91;4954605;29;20205;-67
2023/06/16 06:19:59;;;;;;;6.85;5.72;;;;;;;-141.84;60.67;20976.53;4953980;29;20250;-67
2023/06/16 06:22:31;;;;;;;7.35;6.38;;;;;;;-141.84;60.38;21013.13;4953948;29;20252;-67
2023/06/16 06:25:00;;;;;;;8.63;6.63;;;;;;;-141.84;60.51;21002.94;4953681;29;20225;-67
2023/06/16 06:27:29;;;;;;;6.35;5.72;;;;;;;-141.84;60.46;21004.97;4953928;29;20264;-67
2023/06/16 06:29:57;;;;;;;7.50;6.22;;;;;;;-141.84;59.67;21082.25;4953642;29;20263;-67
2023/06/16 06:32:27;;;;;;;7.55;5.65;;;;;;;-141.84;60.00;21035.47;4956908;28;20251;-67
2023/06/16 06:34:55;;;;;;;7.15;6.10;;;;;;;-141.84;58.45;21090.38;4954272;29;20646;-67
2023/06/16 06:37:29;;;;;;;6.28;5.68;;;;;;;-141.84;58.44;21094.44;4954270;29;20295;-66
2023/06/16 06:39:57;;;;;;;7.38;5.65;;;;;;;-141.84;58.21;21129.00;4962964;28;20573;-68
2023/06/16 06:42:27;;;;;;;7.72;5.45;;;;;;;-141.84;57.33;21124.94;4972899;28;20246;-67
2023/06/16 06:44:55;;;;;;;6.88;5.78;;;;;;;-141.84;58.44;21126.97;4971961;28;20750;-66
2023/06/16 06:47:24;;;;;;;7.82;5.75;;;;;;;-141.84;57.86;21173.72;4972938;28;20203;-67
2023/06/16 06:49:54;;;;;;;6.88;5.65;;;;;;;-141.84;58.01;21147.28;4972221;28;20683;-67
2023/06/16 06:52:23;;;;;;;7.57;6.07;;;;;;;-141.84;58.26;21143.22;4972686;28;20236;-70
2023/06/16 06:54:51;;;;;;;6.20;5.60;;;;;;;-141.84;59.67;21061.91;4968352;28;20239;-71
2023/06/16 06:57:20;;;;;;;7.13;6.47;;;;;;;-141.84;59.27;21137.13;4971959;28;20255;-69
2023/06/16 06:59:49;;;;;;;7.78;6.15;;;;;;;-141.84;58.96;21139.16;4971838;28;20210;-71
2023/06/16 07:02:17;;;;;;;8.70;5.63;;;;;;;-141.84;59.07;21102.56;4972110;28;20246;-73
2023/06/16 07:04:46;;;;;;;9.35;6.43;;;;;;;-141.84;59.50;21131.03;4971644;28;20550;-66
2023/06/16 07:07:17;;;;;;;7.88;5.95;;;;;;;-141.84;59.14;21181.84;4968337;28;20572;-67
2023/06/16 07:09:45;;;;;;;9.32;6.22;;;;;;;-141.84;58.22;21167.63;4961751;28;20467;-67
2023/06/16 07:12:14;;;;;;;7.05;6.13;;;;;;;-141.84;58.21;21163.56;4971772;28;20309;-68
2023/06/16 07:14:42;;;;;;;7.50;6.20;;;;;;;-141.84;57.61;21208.28;4972235;28;20231;-68
2023/06/16 07:17:10;;;;;;;6.15;5.55;;;;;;;-141.84;57.35;21261.16;4971398;28;20295;-69
2023/06/16 07:19:39;;;;;;;6.10;5.50;;;;;;;-141.84;56.60;21261.16;4972022;28;20240;-69
2023/06/16 07:22:07;;;;;;;7.78;6.05;;;;;;;-141.84;56.67;21273.34;4971728;28;20236;-69
2023/06/16 07:24:37;;;;;;;7.85;6.00;;;;;;;-141.84;55.82;21289.59;4971340;28;20212;-67
2023/06/16 07:27:10;;;;;;;6.78;5.53;;;;;;;-141.84;56.25;21234.72;4971844;28;20212;-68
2023/06/16 07:29:38;;;;;;;6.22;5.63;;;;;;;-141.84;56.27;21259.13;4965900;28;20251;-67
2023/06/16 07:32:07;;;;;;;5.78;5.18;;;;;;;-141.84;56.14;21236.75;4971314;28;20253;-69
2023/06/16 07:34:37;;;;;;;5.82;5.22;;;;;;;-141.84;56.85;21222.53;4971228;28;20715;-67
2023/06/16 07:37:06;;;;;;;6.07;5.28;;;;;;;-141.84;56.58;21242.84;4971510;28;20275;-67
2023/06/16 07:39:34;;;;;;;5.90;5.40;;;;;;;-141.84;57.50;21218.44;4971490;28;20266;-71
2023/06/16 07:42:05;;;;;;;6.15;5.55;;;;;;;-141.84;55.86;21285.53;4971481;28;20290;-73
2023/06/16 07:44:33;;;;;;;6.80;5.63;;;;;;;-141.84;56.08;21273.34;4971152;28;20267;-72
2023/06/16 07:47:02;;;;;;;5.82;5.10;;;;;;;-141.84;55.47;21318.06;4971384;28;20243;-67
2023/06/16 07:49:30;;;;;;;7.78;5.07;;;;;;;-141.84;55.57;21328.25;4971117;28;20671;-67
2023/06/16 07:51:59;;;;;;;6.72;5.38;;;;;;;-141.84;55.40;21358.75;4970911;28;20605;-67
2023/06/16 07:54:27;;;;;;;7.45;4.88;;;;;;;-141.84;55.45;21381.09;4970664;28;20679;-67
2023/06/16 07:56:56;;;;;;;6.78;5.10;;;;;;;-141.84;55.00;21433.97;4971256;28;20275;-69
2023/06/16 07:59:26;;;;;;;8.30;5.63;;;;;;;-141.84;55.93;21316.03;4971328;28;20482;-69
2023/06/16 08:01:55;;;;;;;6.07;4.90;;;;;;;-141.84;56.10;21362.81;4970658;28;20238;-68
2023/06/16 08:04:25;;;;;;;9.40;4.78;;;;;;;-141.84;55.45;21411.59;4970959;28;20211;-68
2023/06/16 08:06:53;;;;;;;5.95;4.75;;;;;;;-141.84;55.40;21405.50;4970976;28;20228;-67
2023/06/16 08:09:23;;;;;;;7.10;5.00;;;;;;;-141.84;57.05;21379.06;4970762;28;20207;-70
2023/06/16 08:11:51;;;;;;;5.03;4.55;;;;;;;-141.84;58.14;21311.97;4970969;28;20228;-66
2023/06/16 08:14:21;;;;;;;6.93;4.68;;;;;;;-141.84;59.12;21318.06;4971094;28;20622;-67
2023/06/16 08:16:51;;;;;;;5.22;4.32;;;;;;;-141.84;59.92;21307.91;4970769;28;20718;-67
2023/06/16 08:19:20;;;;;;;5.18;4.60;;;;;;;-141.84;58.92;21295.72;4973371;28;20239;-66
2023/06/16 08:21:48;;;;;;;7.13;4.78;;;;;;;-141.84;59.76;21285.53;4974827;28;20202;-68
2023/06/16 08:24:17;;;;;;;6.13;4.88;;;;;;;-141.84;60.38;21259.13;4970312;28;20293;-67
2023/06/16 08:26:45;;;;;;;7.20;4.78;;;;;;;-141.84;60.00;21248.94;4955516;29;20295;-68
2023/06/16 08:29:14;;;;;;;6.38;4.13;;;;;;;-141.84;60.44;21259.13;4955879;29;20251;-68
2023/06/16 08:31:42;;;;;;;5.75;4.97;;;;;;;-141.84;60.61;21208.28;4955470;29;20451;-68
2023/06/16 08:34:12;;;;;;;5.28;3.88;;;;;;;-141.84;62.06;21181.84;4955776;29;20228;-68
2023/06/16 08:36:41;;;;;;;6.03;4.20;;;;;;;-141.84;62.00;21118.84;4955446;29;20907;-67
2023/06/16 08:39:10;;;;;;;6.95;4.25;;;;;;;-141.84;62.84;21116.78;4959530;28;20208;-67
2023/06/16 08:41:39;;;;;;;6.30;4.53;;;;;;;-141.84;65.40;21033.44;4974618;28;20303;-66
2023/06/16 08:44:10;;;;;;;6.70;4.30;;;;;;;-141.84;67.56;21002.94;4974463;28;20224;-66
2023/06/16 08:46:38;;;;;;;5.55;4.80;;;;;;;-141.84;69.89;20935.88;4974005;28;20640;-66
2023/06/16 08:49:07;;;;;;;4.97;4.53;;;;;;;-141.84;71.01;20939.94;4974331;28;20215;-65
2023/06/16 08:51:40;;;;;;;7.15;4.82;;;;;;;-141.84;71.32;20878.94;4973461;28;20224;-65
2023/06/16 08:54:12;;;;;;;7.32;4.95;;;;;;;-141.84;73.01;20880.97;4973992;28;20628;-62
2023/06/16 08:56:43;;;;;;;5.90;5.10;;;;;;;-141.84;73.48;20854.53;4974737;28;20242;-62
2023/06/16 08:59:14;;;;;;;5.53;4.95;;;;;;;-141.84;73.08;20862.69;4974533;28;20224;-63
2023/06/16 09:01:43;;;;;;;5.25;4.75;;;;;;;-141.84;73.43;20834.22;4974176;28;20280;-62
2023/06/16 09:04:12;;;;;;;7.10;5.50;;;;;;;-141.84;72.39;20852.50;4974331;28;20238;-71
2023/06/16 09:06:45;;;;;;;5.97;5.25;;;;;;;-141.84;73.54;20874.88;4974512;28;20283;-74
2023/06/16 09:09:14;;;;;;;6.25;5.65;;;;;;;-141.84;73.83;20850.47;4973955;28;20234;-77
2023/06/16 09:11:43;;;;;;;7.25;5.60;;;;;;;-141.84;73.84;20891.13;4974119;28;20224;-65
2023/06/16 09:14:14;;;;;;;5.40;4.90;;;;;;;-141.84;73.00;20889.09;4974253;28;20239;-64
2023/06/16 09:16:55;;;;;;;5.28;4.78;;;;;;;-141.84;73.86;20897.25;4973783;28;20243;-67
2023/06/16 09:19:24;;;;;;;6.65;4.97;;;;;;;-141.84;73.45;20915.53;4974305;28;20633;-67
2023/06/16 09:21:57;;;;;;;6.80;5.03;;;;;;;-141.84;73.48;20897.25;4958916;28;20205;-65
2023/06/16 09:24:27;;;;;;;6.47;5.30;;;;;;;-141.84;72.80;20948.06;4954054;29;20190;-67
2023/06/16 09:26:59;;;;;;;5.88;5.30;;;;;;;-141.84;73.91;21009.03;4960282;28;20566;-68
2023/06/16 09:29:29;;;;;;;6.18;5.43;;;;;;;-141.84;72.58;20968.38;4973378;28;20287;-67
2023/06/16 09:32:08;;;;;;;6.10;5.40;;;;;;;-141.84;73.73;20935.88;4973733;28;20208;-68
2023/06/16 09:34:37;;;;;;;7.25;5.38;;;;;;;-141.84;74.83;20895.19;4973797;28;20653;-68
2023/06/16 09:37:10;;;;;;;5.30;4.80;;;;;;;-141.84;75.80;20880.97;4973873;28;20262;-67
2023/06/16 09:39:38;;;;;;;6.45;5.38;;;;;;;-141.84;76.74;20826.09;4973638;28;20207;-67
2023/06/16 09:42:12;;;;;;;6.65;5.78;;;;;;;-141.84;77.10;20838.28;4973659;28;20238;-68
2023/06/16 09:44:41;;;;;;;5.63;5.13;;;;;;;-141.84;78.08;20783.41;4973302;28;20257;-67
2023/06/16 09:47:14;;;;;;;5.97;4.93;;;;;;;-141.84;77.86;20797.63;4973675;28;20208;-66
2023/06/16 09:49:45;;;;;;;5.10;4.70;;;;;;;-141.84;77.55;20826.09;4973452;28;20632;-67
2023/06/16 09:52:17;;;;;;;5.40;4.63;;;;;;;-141.84;77.27;20836.25;4973464;28;20247;-66
2023/06/16 09:54:46;;;;;;;5.13;4.63;;;;;;;-141.84;77.88;20824.06;4972963;28;20238;-64
2023/06/16 09:57:15;;;;;;;5.63;4.50;;;;;;;-141.84;76.56;20858.59;4973571;28;20254;-67
2023/06/16 09:59:44;;;;;;;6.07;5.30;;;;;;;-141.84;76.12;20876.91;4973347;28;20258;-64
2023/06/16 10:02:14;;;;;;;5.70;5.20;;;;;;;-141.84;76.58;20878.94;4973056;28;20251;-64
2023/06/16 10:04:45;;;;;;;4.85;4.45;;;;;;;-141.84;76.87;20862.69;4973208;28;20600;-62
2023/06/16 10:07:15;;;;;;;5.13;4.63;;;;;;;-141.84;75.42;20927.72;4973149;28;20552;-66
2023/06/16 10:09:49;;;;;;;4.40;4.00;;;;;;;-141.84;72.99;20974.50;4973117;28;20258;-67
2023/06/16 10:12:32;;;;;;;4.75;4.35;;;;;;;-141.84;74.10;20939.94;4973491;28;20764;-66
2023/06/16 10:15:03;;;;;;;5.03;4.53;;;;;;;-141.84;74.34;20923.66;4972758;28;20184;-67
2023/06/16 10:17:33;;;;;;;5.05;4.60;;;;;;;-141.84;75.15;20903.34;4961996;28;20255;-66
2023/06/16 10:20:05;;;;;;;4.82;4.43;;;;;;;-141.84;73.57;20972.47;4976726;28;20207;-67
2023/06/16 10:22:35;;;;;;;9.20;5.35;;;;;;;-141.84;75.73;20935.88;4983870;28;20302;-60
2023/06/16 10:25:04;;;;;;;5.15;4.65;;;;;;;-141.84;76.78;20880.97;4973642;28;20254;-60
2023/06/16 10:27:34;;;;;;;5.47;4.97;;;;;;;-141.84;76.38;20905.38;4983549;28;20671;-60
2023/06/16 10:30:04;;;;;;;5.25;4.75;;;;;;;-141.84;74.50;20964.31;4972227;28;20538;-60
2023/06/16 10:32:32;;;;;;;5.20;4.75;;;;;;;-141.84;75.91;20941.97;4972068;28;20255;-59
2023/06/16 10:35:01;;;;;;;7.68;5.35;;;;;;;-141.84;73.84;20990.75;4973054;28;20199;-60
2023/06/16 10:37:30;;;;;;;5.63;4.85;;;;;;;-141.84;74.82;20952.13;4973123;28;20208;-59
2023/06/16 10:40:05;;;;;;;6.63;6.03;;;;;;;-141.84;75.06;20990.75;4972522;28;20212;-59
2023/06/16 10:42:34;;;;;;;7.03;5.10;;;;;;;-141.84;73.80;20988.72;4971836;28;20231;-59
2023/06/16 10:45:25;;;;;;;5.30;4.80;;;;;;;-141.84;74.01;20982.63;4972351;28;20279;-59
2023/06/16 10:47:58;;;;;;;4.68;4.28;;;;;;;-141.84;74.26;20960.25;4967198;28;20208;-60
2023/06/16 10:50:41;;;;;;;6.38;5.35;;;;;;;-141.84;74.36;20986.69;4972135;28;20185;-61
2023/06/16 10:53:12;;;;;;;5.28;4.75;;;;;;;-141.84;75.05;20986.69;4984412;28;20619;-60
2023/06/16 10:55:44;;;;;;;5.70;4.65;;;;;;;-141.84;74.47;21000.91;4991726;28;20191;-60
2023/06/16 10:58:26;;;;;;;4.75;4.30;;;;;;;-141.84;72.97;21029.38;4991888;28;20192;-61
2023/06/16 11:01:14;;;;;;;5.07;4.65;;;;;;;-141.84;71.49;21039.53;4991601;28;20279;-66
2023/06/16 11:03:45;;;;;;;5.13;4.63;;;;;;;-141.84;72.78;21041.56;4980484;28;20191;-66
2023/06/16 11:06:16;;;;;;;5.10;4.60;;;;;;;-141.84;73.42;21031.41;4971983;28;20246;-65
2023/06/16 11:08:52;;;;;;;5.85;5.20;;;;;;;-141.84;73.22;21039.53;4972012;28;20224;-66
2023/06/16 11:11:22;;;;;;;6.50;5.80;;;;;;;-141.84;72.04;21100.53;4972284;28;20247;-66
2023/06/16 11:13:51;;;;;;;5.80;5.30;;;;;;;-141.84;72.85;21094.44;4972420;28;20239;-66
2023/06/16 11:16:19;;;;;;;5.88;5.38;;;;;;;-141.84;72.38;21129.00;4971503;28;20258;-66
2023/06/16 11:18:51;;;;;;;7.72;5.20;;;;;;;-141.84;70.88;21122.91;4969456;28;20223;-66
2023/06/16 11:21:20;;;;;;;6.45;5.13;;;;;;;-141.84;70.40;21167.63;4952264;29;20712;-65
2023/06/16 11:23:49;;;;;;;6.03;5.28;;;;;;;-141.84;70.08;21167.63;4952317;29;20653;-66
2023/06/16 11:26:20;;;;;;;6.30;5.35;;;;;;;-141.84;70.78;21214.38;4952800;29;20200;-65
2023/06/16 11:28:53;;;;;;;5.60;5.05;;;;;;;-141.84;69.27;21250.97;4952652;29;20193;-66